Estación Meteorológica Peña el Pijo (Robertgarden) [ 09/25/18 06:39:18 CEST ]

Fecha Hora Presion(HPa) Temp (°C) Humedad % Rocio (°C) Viento ( m/s) Direccion Lluvia 1Hora(mm) Lluvia 24H(mm) LLuvia Total(mm)
2018-May-16 01:02:01 1008.400 7.4 74 3.1         215.48
2018-May-16 02:01:40 1008.100 6.6 78 3.0         215.48
2018-May-16 03:01:40 1007.700 5.3 79 1.9         215.48
2018-May-16 04:03:13 1007.500 4.4 82 1.6         215.48
2018-May-16 05:01:50 1007.200 4.8 83 2.1         215.48
2018-May-16 06:01:38 1007.000 4.3 83 1.7         215.48
2018-May-16 07:01:41 1007.000 3.6 84 1.1         215.48
2018-May-16 08:01:49 1007.200 5.8 86 3.6         215.48
2018-May-16 09:01:50 1007.000 11.3 79 7.8         215.48
2018-May-16 10:01:34 1006.900 16.6 56 7.8         215.48
2018-May-16 11:01:54 1007.000 19.6 44 7.0         215.48
2018-May-16 12:01:44 1007.100 21.4 37 6.0         215.48
2018-May-16 13:01:41 1007.100 20.1 38 5.3         215.48
2018-May-16 14:01:48 1006.700 22.2 34 5.5 4.5 S     215.48
2018-May-16 15:01:54 1006.400 22.1 33 5.0 2.2 S     215.48
2018-May-16 16:01:30 1006.000 23.1 29 4.6         215.48
2018-May-16 17:01:56 1005.600 22.7 29 3.7         215.48
2018-May-16 18:01:42 1005.800 21.3 30 3.1         215.48
2018-May-16 19:01:16 1005.700 19.9 31 2.2         215.48
2018-May-16 20:01:23 1006.000 17.4 35 1.4 1.5 NE     215.48
2018-May-16 21:01:56 1006.500 14.8 42 2.0         215.48
2018-May-16 22:01:28 1006.800 11.9 47 0.9         215.48
2018-May-16 23:01:43 1007.500 9.9 53 0.8         215.48

Temperatura Máxima:23°    Temperatura Mínima:
Presión Máxima:1008.400 Hpa    Presión Mínima:1005.600 Hpa


Volver